Time;durP1;ratioP1;P1;durP2;ratioP2;P2;SDS_P1;SDS_P2;PMS_P1;PMS_P2;Temp;Humidity;BMP_temperature;BMP_pressure;BME280_temperature;BME280_humidity;BME280_pressure;Samples;Min_cycle;Max_cycle;Signal;HPM_P1;HPM_P2
2023/01/24 00:03:16;;;;;;;16.67;7.90;;;0.80;99.90;;;;;;10212475;23;20084;-82
2023/01/24 00:07:17;;;;;;;15.00;6.18;;;0.80;99.90;;;;;;10237831;23;20089;-82
2023/01/24 00:11:17;;;;;;;15.10;6.72;;;0.80;99.90;;;;;;10214193;23;20005;-81
2023/01/24 00:15:18;;;;;;;9.13;4.60;;;0.80;99.90;;;;;;10213217;23;20009;-81
2023/01/24 00:19:18;;;;;;;9.65;5.15;;;0.80;99.90;;;;;;10235880;23;20008;-80
2023/01/24 00:23:19;;;;;;;3.38;1.75;;;0.80;99.90;;;;;;10209507;23;20005;-81
2023/01/24 00:27:19;;;;;;;18.98;7.03;;;0.90;99.90;;;;;;10209540;23;20020;-81
2023/01/24 00:31:20;;;;;;;15.63;6.60;;;0.80;99.90;;;;;;10209236;23;20466;-81
2023/01/24 00:35:20;;;;;;;14.13;7.75;;;0.80;99.90;;;;;;10209079;23;20019;-82
2023/01/24 00:39:21;;;;;;;11.30;6.10;;;0.90;99.90;;;;;;10209899;23;20016;-82
2023/01/24 00:43:21;;;;;;;9.52;4.50;;;0.90;99.90;;;;;;10210046;23;20005;-81
2023/01/24 00:47:23;;;;;;;11.20;4.88;;;0.90;99.90;;;;;;10209881;23;20013;-80
2023/01/24 00:51:24;;;;;;;12.57;6.55;;;0.90;99.90;;;;;;10209043;23;20095;-82
2023/01/24 00:55:24;;;;;;;5.60;2.95;;;0.80;99.90;;;;;;10209205;23;20476;-81
2023/01/24 00:59:25;;;;;;;8.02;3.90;;;0.90;99.90;;;;;;10235666;23;20447;-81
2023/01/24 01:03:26;;;;;;;17.17;5.47;;;0.90;99.90;;;;;;10208979;23;20012;-81
2023/01/24 01:07:26;;;;;;;16.48;7.53;;;0.90;99.90;;;;;;10208961;23;20329;-81
2023/01/24 01:11:27;;;;;;;15.13;7.47;;;0.90;99.90;;;;;;10208779;23;20016;-82
2023/01/24 01:15:29;;;;;;;12.00;7.30;;;0.90;99.90;;;;;;10208484;23;20009;-80
2023/01/24 01:19:29;;;;;;;15.45;7.55;;;0.80;99.90;;;;;;10206454;23;20455;-81
2023/01/24 01:23:30;;;;;;;7.22;3.97;;;0.90;99.90;;;;;;10208693;23;20008;-81
2023/01/24 01:27:30;;;;;;;10.45;6.00;;;0.90;99.90;;;;;;10211417;23;20715;-81
2023/01/24 01:31:31;;;;;;;8.13;4.65;;;0.90;99.90;;;;;;10212333;23;20460;-81
2023/01/24 01:35:32;;;;;;;8.68;4.43;;;0.80;99.90;;;;;;10211892;23;20017;-81
2023/01/24 01:39:32;;;;;;;12.73;6.18;;;0.90;99.90;;;;;;10212408;23;20020;-82
2023/01/24 01:43:35;;;;;;;11.25;6.35;;;0.90;99.90;;;;;;10212417;23;20009;-81
2023/01/24 01:47:36;;;;;;;20.83;7.93;;;1.00;99.90;;;;;;10212768;23;20013;-81
2023/01/24 01:51:50;;;;;;;8.85;4.05;;;0.90;99.90;;;;;;10212527;23;20492;-81
2023/01/24 01:56:00;;;;;;;5.15;2.65;;;0.90;99.90;;;;;;10212085;23;20005;-81
2023/01/24 02:00:16;;;;;;;13.02;6.03;;;1.00;99.90;;;;;;10212102;23;20005;-80
2023/01/24 02:04:22;;;;;;;13.02;6.80;;;0.90;99.90;;;;;;10207285;23;20008;-81
2023/01/24 02:08:23;;;;;;;14.15;6.25;;;0.90;99.90;;;;;;10207646;23;20515;-81
2023/01/24 02:12:47;;;;;;;10.15;5.25;;;0.90;99.90;;;;;;10208033;23;20012;-82
2023/01/24 02:16:48;;;;;;;11.25;5.40;;;0.90;99.90;;;;;;10209202;23;20009;-81
2023/01/24 02:20:49;;;;;;;10.05;3.53;;;0.90;99.90;;;;;;10211080;23;20001;-81
2023/01/24 02:25:16;;;;;;;5.75;3.13;;;0.90;99.90;;;;;;10210464;23;20013;-81
2023/01/24 02:29:17;;;;;;;13.75;5.95;;;0.90;99.90;;;;;;10209926;23;20447;-81
2023/01/24 02:33:21;;;;;;;9.93;4.78;;;0.90;99.90;;;;;;10210264;23;20009;-82
2023/01/24 02:37:24;;;;;;;8.13;3.78;;;0.90;99.90;;;;;;10210552;23;20009;-81
2023/01/24 02:41:29;;;;;;;8.88;4.57;;;0.90;99.90;;;;;;10237117;23;20348;-81
2023/01/24 02:45:37;;;;;;;13.38;5.85;;;0.90;99.90;;;;;;10237176;23;20084;-82
2023/01/24 02:49:37;;;;;;;5.78;3.15;;;0.80;99.90;;;;;;10211528;23;20015;-82
2023/01/24 02:53:39;;;;;;;7.10;3.70;;;0.80;99.90;;;;;;10214526;23;20017;-79
2023/01/24 03:01:58;;;;;;;7.68;4.50;;;0.80;99.90;;;;;;10227719;23;20027;-80
2023/01/24 03:06:00;;;;;;;12.93;5.32;;;0.90;99.90;;;;;;10188037;23;20010;-80
2023/01/24 03:10:00;;;;;;;10.52;5.45;;;0.90;99.90;;;;;;10190204;23;20056;-79
2023/01/24 03:35:36;;;;;;;10.80;5.55;;;0.90;99.90;;;;;;10189418;23;20020;-80
2023/01/24 03:39:58;;;;;;;6.68;4.05;;;0.90;99.90;;;;;;10189740;23;20001;-80
2023/01/24 03:43:58;;;;;;;7.55;4.13;;;0.90;99.90;;;;;;10188076;23;20001;-80
2023/01/24 03:48:02;;;;;;;8.77;4.15;;;0.90;99.90;;;;;;10162405;23;20013;-80
2023/01/24 03:56:22;;;;;;;6.57;3.70;;;0.90;99.90;;;;;;10188802;23;20487;-79
2023/01/24 04:00:22;;;;;;;8.18;4.90;;;0.90;99.90;;;;;;10164240;23;20005;-80
2023/01/24 04:04:23;;;;;;;8.07;4.95;;;0.90;99.90;;;;;;10162775;23;20005;-80
2023/01/24 04:08:24;;;;;;;7.85;4.60;;;1.00;99.90;;;;;;10190714;23;20006;-79
2023/01/24 04:12:25;;;;;;;5.05;2.78;;;1.00;99.90;;;;;;10186720;23;20064;-78
2023/01/24 04:16:26;;;;;;;6.68;3.50;;;0.90;99.90;;;;;;10190783;23;20021;-79
2023/01/24 04:20:29;;;;;;;11.20;5.47;;;0.90;99.90;;;;;;10190032;23;20006;-79
2023/01/24 04:24:29;;;;;;;11.32;6.13;;;0.90;99.90;;;;;;10214121;23;20436;-78
2023/01/24 04:28:31;;;;;;;7.30;3.13;;;0.90;99.90;;;;;;10190390;23;20013;-79
2023/01/24 04:32:32;;;;;;;8.38;4.55;;;1.00;99.90;;;;;;10188837;23;20456;-79
2023/01/24 04:36:32;;;;;;;6.95;3.17;;;1.00;99.90;;;;;;10189485;23;20012;-79
2023/01/24 04:40:33;;;;;;;11.18;5.75;;;1.00;99.90;;;;;;10188239;23;20006;-81
2023/01/24 04:44:33;;;;;;;8.93;4.03;;;1.00;99.90;;;;;;10188059;23;20010;-80
2023/01/24 04:48:34;;;;;;;8.98;4.53;;;0.90;99.90;;;;;;10188988;23;20088;-80
2023/01/24 04:52:34;;;;;;;6.70;3.42;;;1.00;99.90;;;;;;10191375;23;20089;-79
2023/01/24 04:56:35;;;;;;;10.00;5.25;;;0.90;99.90;;;;;;10189896;23;20005;-80
2023/01/24 05:00:36;;;;;;;10.13;4.32;;;1.00;99.90;;;;;;10196571;23;20008;-81
2023/01/24 05:04:36;;;;;;;8.80;4.00;;;0.90;99.90;;;;;;10195016;23;20025;-80
2023/01/24 05:08:37;;;;;;;4.72;2.78;;;1.00;99.90;;;;;;10194899;23;20017;-80
2023/01/24 05:12:37;;;;;;;12.45;6.20;;;0.90;99.90;;;;;;10193743;23;20009;-80
2023/01/24 05:16:38;;;;;;;5.55;3.78;;;0.90;99.90;;;;;;10189367;23;20062;-80
2023/01/24 05:20:38;;;;;;;13.32;6.65;;;1.00;99.90;;;;;;10189190;23;20060;-79
2023/01/24 05:24:39;;;;;;;8.35;4.32;;;1.00;99.90;;;;;;10189731;23;20005;-79
2023/01/24 05:28:39;;;;;;;5.25;2.58;;;0.90;99.90;;;;;;10187922;23;20001;-79
2023/01/24 05:32:41;;;;;;;8.18;4.32;;;0.90;99.90;;;;;;10189618;23;19998;-79
2023/01/24 05:36:41;;;;;;;7.97;3.55;;;1.00;99.90;;;;;;10189866;23;20507;-79
2023/01/24 05:40:43;;;;;;;14.88;4.10;;;1.00;99.90;;;;;;10189698;23;20081;-79
2023/01/24 05:44:44;;;;;;;6.50;3.58;;;1.00;99.90;;;;;;10189162;23;20036;-80
2023/01/24 05:48:46;;;;;;;12.23;5.13;;;1.00;99.90;;;;;;10189274;23;20006;-79
2023/01/24 05:52:46;;;;;;;9.95;5.25;;;1.00;99.90;;;;;;10190922;23;20010;-80
2023/01/24 05:56:46;;;;;;;15.52;5.80;;;1.00;99.90;;;;;;10192545;23;20005;-79
2023/01/24 06:00:47;;;;;;;4.25;2.80;;;1.00;99.90;;;;;;10189427;23;20424;-79
2023/01/24 06:04:48;;;;;;;6.18;3.80;;;1.10;99.90;;;;;;10187335;23;20002;-79
2023/01/24 06:08:49;;;;;;;16.83;6.47;;;1.00;99.90;;;;;;10186058;23;20009;-79
2023/01/24 06:12:49;;;;;;;12.20;4.80;;;1.10;99.90;;;;;;10186595;23;20084;-80
2023/01/24 06:16:50;;;;;;;9.57;5.45;;;1.10;99.90;;;;;;10163474;23;20014;-79
2023/01/24 06:20:50;;;;;;;5.25;2.85;;;1.10;99.90;;;;;;10187972;23;20037;-80
2023/01/24 06:24:51;;;;;;;8.05;5.00;;;1.20;99.90;;;;;;10188071;23;20065;-79
2023/01/24 06:28:52;;;;;;;11.98;4.97;;;1.20;99.90;;;;;;10186739;23;20002;-80
2023/01/24 06:33:03;;;;;;;6.65;3.70;;;1.20;99.90;;;;;;10189145;23;19997;-79
2023/01/24 06:37:20;;;;;;;2.30;1.15;;;1.10;99.90;;;;;;10186217;23;20014;-80
2023/01/24 06:41:21;;;;;;;11.02;5.28;;;1.10;99.90;;;;;;10186688;23;20009;-80
2023/01/24 06:45:22;;;;;;;13.38;6.40;;;1.10;99.90;;;;;;10186194;23;20009;-80
2023/01/24 06:49:22;;;;;;;9.52;4.65;;;1.10;99.90;;;;;;10188164;23;20403;-81
2023/01/24 06:53:23;;;;;;;5.35;2.10;;;1.10;99.90;;;;;;10187686;23;20017;-80
2023/01/24 06:57:23;;;;;;;12.90;5.82;;;1.10;99.90;;;;;;10188727;23;20436;-80
2023/01/24 07:01:24;;;;;;;17.92;8.00;;;1.10;99.90;;;;;;10186393;23;20325;-79
2023/01/24 07:05:26;;;;;;;3.70;1.70;;;1.00;99.90;;;;;;10187056;23;20013;-81
2023/01/24 07:09:26;;;;;;;3.78;2.22;;;1.10;99.90;;;;;;10185463;23;20012;-80
2023/01/24 07:13:27;;;;;;;11.55;5.40;;;1.10;99.90;;;;;;10187661;23;20032;-80
2023/01/24 07:17:27;;;;;;;11.10;4.15;;;1.10;99.90;;;;;;10161350;23;20005;-80
2023/01/24 07:21:28;;;;;;;11.93;3.58;;;1.20;99.90;;;;;;10185167;23;20468;-80
2023/01/24 07:25:30;;;;;;;9.18;4.35;;;1.10;99.90;;;;;;10186839;23;20005;-80
2023/01/24 07:29:31;;;;;;;10.43;4.82;;;1.10;99.90;;;;;;10185634;23;20013;-81
2023/01/24 07:33:31;;;;;;;14.93;5.65;;;1.10;99.90;;;;;;10161506;23;20398;-81
2023/01/24 07:37:32;;;;;;;3.13;2.13;;;1.10;99.90;;;;;;10161624;23;20009;-80
2023/01/24 07:41:34;;;;;;;14.48;6.32;;;1.10;99.90;;;;;;10187626;23;20012;-81
2023/01/24 07:45:35;;;;;;;8.15;3.78;;;1.10;99.90;;;;;;10186687;23;20470;-82
2023/01/24 07:49:36;;;;;;;13.75;6.30;;;1.10;99.90;;;;;;10186871;23;20455;-83
2023/01/24 07:53:36;;;;;;;12.15;5.95;;;1.10;99.90;;;;;;10187335;23;20021;-83
2023/01/24 07:57:37;;;;;;;11.88;5.22;;;1.10;99.90;;;;;;10187825;23;19998;-83
2023/01/24 08:01:37;;;;;;;10.05;5.22;;;1.20;99.90;;;;;;10184003;23;20016;-82
2023/01/24 08:05:38;;;;;;;3.03;2.17;;;1.20;99.90;;;;;;10183986;23;20467;-82
2023/01/24 08:09:38;;;;;;;11.60;4.45;;;1.20;99.90;;;;;;10184098;23;20009;-81
2023/01/24 08:13:39;;;;;;;6.50;2.85;;;1.20;99.90;;;;;;10185072;23;20440;-81
2023/01/24 08:17:39;;;;;;;10.27;5.10;;;1.20;99.90;;;;;;10184941;23;20072;-82
2023/01/24 08:21:40;;;;;;;10.82;4.32;;;1.30;99.90;;;;;;10184685;23;20009;-83
2023/01/24 08:25:40;;;;;;;10.30;4.70;;;1.30;99.90;;;;;;10184353;23;20019;-82
2023/01/24 08:29:41;;;;;;;10.55;4.95;;;1.20;99.90;;;;;;10184831;23;20005;-83
2023/01/24 08:33:41;;;;;;;11.60;4.65;;;1.20;99.90;;;;;;10183985;23;20036;-82
2023/01/24 08:37:43;;;;;;;11.80;6.35;;;1.20;99.90;;;;;;10186897;23;20009;-82
2023/01/24 08:41:45;;;;;;;12.43;5.53;;;1.20;99.90;;;;;;10184624;23;20072;-83
2023/01/24 08:45:46;;;;;;;9.98;5.32;;;1.20;99.90;;;;;;10184039;23;20009;-82
2023/01/24 08:49:46;;;;;;;18.08;7.63;;;1.20;99.90;;;;;;10185647;23;20012;-83
2023/01/24 09:14:31;;;;;;;13.95;6.40;;;1.20;99.90;;;;;;10316599;23;20437;-85
2023/01/24 09:18:32;;;;;;;14.35;5.20;;;1.20;99.90;;;;;;10303902;23;20011;-86
2023/01/24 09:22:32;;;;;;;10.55;5.68;;;1.30;99.90;;;;;;10303834;23;20054;-85
2023/01/24 09:26:33;;;;;;;13.85;6.32;;;1.30;99.90;;;;;;10304174;23;20330;-85
2023/01/24 09:30:34;;;;;;;13.38;6.05;;;1.20;99.90;;;;;;10303829;23;20019;-85
2023/01/24 09:34:35;;;;;;;17.45;6.53;;;1.20;99.90;;;;;;10303454;23;20092;-86
2023/01/24 09:38:35;;;;;;;11.80;4.97;;;1.30;99.90;;;;;;10303881;23;20012;-85
2023/01/24 09:42:40;;;;;;;5.93;3.67;;;1.30;99.90;;;;;;10304300;23;20332;-85
2023/01/24 09:46:45;;;;;;;5.32;2.55;;;1.40;99.90;;;;;;10306894;23;20018;-85
2023/01/24 09:50:59;;;;;;;10.95;6.20;;;1.40;99.90;;;;;;10306734;23;20015;-85
2023/01/24 09:55:14;;;;;;;12.57;6.53;;;1.40;99.90;;;;;;10306633;23;20308;-85
2023/01/24 09:59:37;;;;;;;12.52;5.38;;;1.30;99.90;;;;;;10306335;23;20134;-85
2023/01/24 10:03:39;;;;;;;10.38;3.17;;;1.40;99.90;;;;;;10305932;23;20043;-84
2023/01/24 10:08:07;;;;;;;10.50;5.00;;;1.40;99.90;;;;;;10306602;23;20061;-84
2023/01/24 10:12:14;;;;;;;9.95;5.38;;;1.50;99.90;;;;;;10306549;23;20396;-85
2023/01/24 10:16:40;;;;;;;22.05;7.78;;;1.50;99.90;;;;;;10306752;23;20122;-85
2023/01/24 10:20:49;;;;;;;13.75;5.85;;;1.40;99.90;;;;;;10333165;23;20490;-85
2023/01/24 10:25:16;;;;;;;17.52;6.53;;;1.70;99.90;;;;;;10306205;23;20397;-85
2023/01/24 10:29:25;;;;;;;3.50;1.48;;;1.70;99.90;;;;;;10305985;23;20000;-84
2023/01/24 10:33:31;;;;;;;5.25;2.10;;;1.60;99.90;;;;;;10333124;23;20215;-84
2023/01/24 10:37:41;;;;;;;7.22;4.35;;;1.50;99.90;;;;;;10306176;23;20164;-85
2023/01/24 10:41:42;;;;;;;10.88;5.32;;;1.60;99.90;;;;;;10305584;23;20327;-84
2023/01/24 10:46:11;;;;;;;12.35;5.32;;;1.50;99.90;;;;;;10306184;23;20012;-85
2023/01/24 10:50:15;;;;;;;15.02;7.28;;;1.60;99.90;;;;;;10305611;23;20095;-85
2023/01/24 10:54:22;;;;;;;14.68;6.97;;;1.70;99.90;;;;;;10305081;23;20091;-85
2023/01/24 10:58:27;;;;;;;12.75;5.97;;;1.70;99.90;;;;;;10332368;23;20004;-85
2023/01/24 11:02:31;;;;;;;10.10;5.63;;;1.70;99.90;;;;;;10305179;23;20036;-85
2023/01/24 11:06:36;;;;;;;7.63;3.25;;;1.60;99.90;;;;;;10305700;23;20016;-85
2023/01/24 11:10:41;;;;;;;5.72;3.33;;;1.70;99.90;;;;;;10305508;23;20008;-84
2023/01/24 11:14:48;;;;;;;5.28;1.98;;;1.70;99.90;;;;;;10306116;23;20070;-84
2023/01/24 11:19:00;;;;;;;9.00;4.72;;;1.60;99.90;;;;;;10306132;23;20012;-84
2023/01/24 11:23:10;;;;;;;7.65;2.88;;;1.60;99.90;;;;;;10305772;23;20004;-84
2023/01/24 11:27:18;;;;;;;9.65;4.78;;;1.60;99.90;;;;;;10332205;23;20386;-83
2023/01/24 11:31:26;;;;;;;15.43;6.15;;;1.60;99.90;;;;;;10332152;23;20011;-84
2023/01/24 11:35:37;;;;;;;7.07;3.90;;;1.60;99.90;;;;;;10304933;23;20012;-84
2023/01/24 11:40:12;;;;;;;11.18;5.63;;;1.60;99.90;;;;;;10304861;23;19996;-83
2023/01/24 11:44:40;;;;;;;11.50;5.22;;;1.60;99.90;;;;;;10305361;23;20015;-84
2023/01/24 11:48:58;;;;;;;6.18;2.95;;;1.60;99.90;;;;;;10304705;23;20015;-84
2023/01/24 11:53:29;;;;;;;3.55;2.47;;;1.60;99.90;;;;;;10304833;23;20011;-84
2023/01/24 11:57:45;;;;;;;8.75;5.03;;;1.60;99.90;;;;;;10304322;23;20019;-83
2023/01/24 12:01:50;;;;;;;10.75;5.60;;;1.60;99.90;;;;;;10304017;23;20008;-83
2023/01/24 12:06:03;;;;;;;10.88;4.82;;;1.50;99.90;;;;;;10303960;23;20016;-84
2023/01/24 12:10:35;;;;;;;8.73;3.92;;;1.50;99.90;;;;;;10330680;23;20010;-83
2023/01/24 12:14:57;;;;;;;11.02;6.13;;;1.70;99.90;;;;;;10303877;23;20019;-83
2023/01/24 12:19:42;;;;;;;10.07;4.70;;;1.70;99.90;;;;;;10304459;23;20030;-83
2023/01/24 12:23:56;;;;;;;5.68;2.42;;;1.60;99.90;;;;;;10304285;23;20019;-83
2023/01/24 12:28:01;;;;;;;8.20;3.88;;;1.60;99.90;;;;;;10304536;23;20000;-82
2023/01/24 12:32:26;;;;;;;11.95;3.95;;;1.80;99.90;;;;;;10304500;23;20027;-83
2023/01/24 12:36:39;;;;;;;11.43;5.18;;;1.80;99.90;;;;;;10303256;23;20319;-82
2023/01/24 12:41:07;;;;;;;3.15;2.63;;;1.60;99.90;;;;;;10330238;23;20000;-83
2023/01/24 12:45:20;;;;;;;5.68;2.63;;;1.70;99.90;;;;;;10330378;23;20000;-83
2023/01/24 12:49:33;;;;;;;15.90;7.68;;;1.60;99.90;;;;;;10303997;23;20004;-83
2023/01/24 12:54:06;;;;;;;19.33;7.03;;;1.80;99.90;;;;;;10303830;23;20043;-83
2023/01/24 12:58:21;;;;;;;16.50;5.93;;;1.80;99.90;;;;;;10303639;23;20004;-83
2023/01/24 13:02:59;;;;;;;16.63;7.13;;;2.10;99.90;;;;;;10303414;23;20015;-83
2023/01/24 13:07:36;;;;;;;12.90;6.15;;;2.10;99.90;;;;;;10303185;23;20035;-83
2023/01/24 13:11:44;;;;;;;16.58;6.90;;;2.20;99.90;;;;;;10303194;23;20222;-83
2023/01/24 13:16:01;;;;;;;5.00;2.35;;;2.20;99.90;;;;;;10303365;23;20019;-84
2023/01/24 13:20:22;;;;;;;14.35;6.85;;;2.10;99.90;;;;;;10306526;23;20000;-84
2023/01/24 13:24:44;;;;;;;15.50;6.35;;;2.00;99.90;;;;;;10307042;23;20030;-83
2023/01/24 13:29:23;;;;;;;5.93;2.00;;;1.90;99.90;;;;;;10307213;23;20079;-84
2023/01/24 13:33:40;;;;;;;7.70;4.53;;;2.00;99.90;;;;;;10306666;23;20086;-84
2023/01/24 13:37:41;;;;;;;13.30;6.85;;;1.90;99.90;;;;;;10306245;23;20430;-84
2023/01/24 13:41:41;;;;;;;12.45;5.57;;;1.80;99.90;;;;;;10333426;23;20004;-84
2023/01/24 13:45:46;;;;;;;9.70;4.57;;;1.90;99.90;;;;;;10306734;23;20059;-85
2023/01/24 13:49:53;;;;;;;15.00;5.78;;;1.90;99.90;;;;;;10306618;23;20004;-84
2023/01/24 13:54:16;;;;;;;8.07;3.85;;;1.90;99.90;;;;;;10333712;23;20004;-85
2023/01/24 13:58:22;;;;;;;11.70;4.80;;;1.90;99.90;;;;;;10306292;23;20004;-85
2023/01/24 14:02:38;;;;;;;13.85;6.25;;;1.80;99.90;;;;;;10305852;23;20267;-85
2023/01/24 14:06:43;;;;;;;14.82;6.25;;;1.90;99.90;;;;;;10306005;23;20386;-85
2023/01/24 14:10:47;;;;;;;15.60;6.60;;;1.90;99.90;;;;;;10332482;23;20004;-84
2023/01/24 14:15:12;;;;;;;15.10;6.65;;;1.90;99.90;;;;;;10305933;23;20358;-85
2023/01/24 14:19:29;;;;;;;14.30;5.78;;;1.80;99.90;;;;;;10288439;23;20082;-85
2023/01/24 14:23:32;;;;;;;10.05;4.53;;;1.70;99.90;;;;;;10333424;23;20000;-85
2023/01/24 14:27:46;;;;;;;16.98;6.25;;;1.80;99.90;;;;;;10305963;23;20015;-85
2023/01/24 14:31:53;;;;;;;10.88;4.97;;;1.70;99.90;;;;;;10305650;23;20000;-85
2023/01/24 14:36:24;;;;;;;11.80;5.05;;;1.70;99.90;;;;;;10305714;23;20008;-86
2023/01/24 14:40:26;;;;;;;7.60;3.90;;;1.80;99.90;;;;;;10306293;23;20011;-86
2023/01/24 14:44:58;;;;;;;9.05;3.80;;;1.80;99.90;;;;;;10305723;23;20435;-86
2023/01/24 14:48:59;;;;;;;6.60;3.75;;;1.70;99.90;;;;;;10286685;23;20524;-85
2023/01/24 14:53:00;;;;;;;11.10;4.07;;;1.70;99.90;;;;;;10305770;23;20005;-86
2023/01/24 14:57:01;;;;;;;11.93;6.82;;;1.70;99.90;;;;;;10305379;23;20008;-85
2023/01/24 15:01:02;;;;;;;11.20;4.05;;;1.60;99.90;;;;;;10305739;23;20058;-86
2023/01/24 15:05:21;;;;;;;11.98;5.43;;;1.60;99.90;;;;;;10304806;23;20007;-86
2023/01/24 15:09:22;;;;;;;4.90;1.75;;;1.40;99.90;;;;;;10305700;23;20418;-85
2023/01/24 15:13:33;;;;;;;4.43;2.67;;;1.50;99.90;;;;;;10304925;23;20015;-85
2023/01/24 15:17:33;;;;;;;16.23;6.47;;;1.50;99.90;;;;;;10331659;23;20406;-85
2023/01/24 15:21:39;;;;;;;9.20;4.72;;;1.40;99.90;;;;;;10304489;23;20000;-85
2023/01/24 15:25:42;;;;;;;11.00;5.65;;;1.50;99.90;;;;;;10305044;23;20004;-86
2023/01/24 15:29:45;;;;;;;10.20;4.90;;;1.40;99.90;;;;;;10304788;23;20034;-86
2023/01/24 15:33:53;;;;;;;11.88;5.43;;;1.50;99.90;;;;;;10305108;23;20189;-85
2023/01/24 15:38:25;;;;;;;9.18;4.55;;;1.50;99.90;;;;;;10304791;23;20433;-85
2023/01/24 15:51:35;;;;;;;11.18;5.40;;;1.50;99.90;;;;;;10330574;23;20143;-85
2023/01/24 15:55:36;;;;;;;11.45;5.38;;;1.50;99.90;;;;;;10330965;23;20000;-85
2023/01/24 15:59:40;;;;;;;6.40;3.08;;;1.50;99.90;;;;;;10304563;23;20095;-85
2023/01/24 16:03:41;;;;;;;5.78;2.40;;;1.50;99.90;;;;;;10304107;23;20011;-84
2023/01/24 16:07:41;;;;;;;12.73;4.72;;;1.40;99.90;;;;;;10303487;23;20015;-86
2023/01/24 16:11:44;;;;;;;5.80;3.22;;;1.40;99.90;;;;;;10303699;23;20075;-85
2023/01/24 16:15:45;;;;;;;11.63;5.57;;;1.40;99.90;;;;;;10304299;23;20008;-85
2023/01/24 16:19:45;;;;;;;9.65;4.78;;;1.40;99.90;;;;;;10303614;23;20008;-85
2023/01/24 16:23:46;;;;;;;10.68;3.80;;;1.50;99.90;;;;;;10303744;23;20009;-85
2023/01/24 16:27:47;;;;;;;7.43;2.90;;;1.50;99.90;;;;;;10303977;23;20473;-85
2023/01/24 16:31:49;;;;;;;7.70;3.47;;;1.50;99.90;;;;;;10302777;23;20020;-85
2023/01/24 16:35:49;;;;;;;11.45;5.80;;;1.60;99.90;;;;;;10303982;23;20028;-85
2023/01/24 16:39:50;;;;;;;10.25;4.78;;;1.60;99.90;;;;;;10302836;23;20054;-84
2023/01/24 16:43:51;;;;;;;8.32;4.68;;;1.60;99.90;;;;;;10304496;23;20066;-85
2023/01/24 16:47:51;;;;;;;9.90;4.40;;;1.50;99.90;;;;;;10335612;23;20015;-84
2023/01/24 16:51:52;;;;;;;9.00;4.65;;;1.50;99.90;;;;;;10333763;23;20004;-85
2023/01/24 16:55:58;;;;;;;8.88;4.03;;;1.50;99.90;;;;;;10307769;23;20015;-85
2023/01/24 16:59:59;;;;;;;1.60;1.33;;;1.60;99.90;;;;;;10307931;23;20028;-85
2023/01/24 17:03:59;;;;;;;14.27;6.80;;;1.60;99.90;;;;;;10334337;23;20451;-84
2023/01/24 17:08:00;;;;;;;9.85;5.05;;;1.50;99.90;;;;;;10334892;23;20054;-85
2023/01/24 17:12:02;;;;;;;7.50;3.63;;;1.60;99.90;;;;;;10308015;23;20012;-85
2023/01/24 17:16:08;;;;;;;15.32;6.78;;;1.60;99.90;;;;;;10334054;23;20004;-85
2023/01/24 17:20:10;;;;;;;10.30;5.82;;;1.60;99.90;;;;;;10307913;23;20434;-85
2023/01/24 17:24:10;;;;;;;9.27;3.30;;;1.60;99.90;;;;;;10304321;23;20446;-85
2023/01/24 17:28:11;;;;;;;11.48;5.53;;;1.60;99.90;;;;;;10304140;23;20099;-85
2023/01/24 17:32:12;;;;;;;10.95;5.10;;;1.60;99.90;;;;;;10303915;23;20004;-85
2023/01/24 17:36:13;;;;;;;11.90;6.25;;;1.70;99.90;;;;;;10302375;23;20039;-86
2023/01/24 17:40:13;;;;;;;12.90;6.22;;;1.60;99.90;;;;;;10328459;23;20062;-85
2023/01/24 17:44:16;;;;;;;15.23;6.63;;;1.60;99.90;;;;;;10330731;23;19996;-85
2023/01/24 17:48:16;;;;;;;13.63;5.97;;;1.70;99.90;;;;;;10303952;23;20558;-85
2023/01/24 17:52:17;;;;;;;7.85;3.17;;;1.70;99.90;;;;;;10303000;23;20066;-84
2023/01/24 17:56:18;;;;;;;10.60;5.18;;;1.70;99.90;;;;;;10303168;23;20008;-84
2023/01/24 18:00:19;;;;;;;10.48;4.50;;;1.70;99.90;;;;;;10330476;23;20000;-85
2023/01/24 18:04:25;;;;;;;14.85;4.88;;;1.80;99.90;;;;;;10305466;23;19996;-85
2023/01/24 18:08:26;;;;;;;13.18;6.13;;;1.70;99.90;;;;;;10309046;23;20015;-85
2023/01/24 18:12:34;;;;;;;12.48;5.53;;;1.70;99.90;;;;;;10308559;23;20031;-85
2023/01/24 18:16:35;;;;;;;9.65;5.03;;;1.60;99.90;;;;;;10309010;23;20558;-85
2023/01/24 18:20:40;;;;;;;15.30;6.53;;;1.50;99.90;;;;;;10309615;23;20012;-85
2023/01/24 18:24:41;;;;;;;11.38;5.85;;;1.60;99.90;;;;;;10306370;23;20008;-84
2023/01/24 18:28:44;;;;;;;10.90;5.88;;;1.60;99.90;;;;;;10309246;23;20062;-85
2023/01/24 19:14:22;;;;;;;18.60;7.63;;;1.60;99.90;;;;;;10318519;23;20415;-83
2023/01/24 19:18:22;;;;;;;16.50;8.35;;;1.60;99.90;;;;;;10335179;23;20015;-83
2023/01/24 19:22:23;;;;;;;10.20;4.80;;;1.60;99.90;;;;;;10334817;23;19996;-83
2023/01/24 19:26:24;;;;;;;14.90;6.35;;;1.60;99.90;;;;;;10307874;23;20020;-83
2023/01/24 19:30:40;;;;;;;12.48;6.82;;;1.50;99.90;;;;;;10308568;23;20635;-83
2023/01/24 19:34:41;;;;;;;9.07;4.93;;;1.60;99.90;;;;;;10308184;23;20893;-83
2023/01/24 19:38:42;;;;;;;12.05;6.75;;;1.60;99.90;;;;;;10307448;23;20027;-83
2023/01/24 19:42:46;;;;;;;16.52;8.98;;;1.50;99.90;;;;;;10307295;23;20042;-82
2023/01/24 19:46:54;;;;;;;16.20;7.97;;;1.60;99.90;;;;;;10306867;23;20008;-83
2023/01/24 19:51:01;;;;;;;15.18;6.72;;;1.70;99.90;;;;;;10308261;23;20038;-83
2023/01/24 19:55:02;;;;;;;15.88;6.93;;;1.70;99.90;;;;;;10307403;23;20015;-83
2023/01/24 19:59:03;;;;;;;9.02;4.22;;;1.70;99.90;;;;;;10334510;23;20465;-83
2023/01/24 20:03:03;;;;;;;12.65;5.78;;;1.70;99.90;;;;;;10301044;23;20007;-83
2023/01/24 20:07:04;;;;;;;8.40;4.72;;;1.70;99.90;;;;;;10300640;23;20008;-82
2023/01/24 20:11:06;;;;;;;9.13;5.00;;;1.70;99.90;;;;;;10300996;23;20030;-83
2023/01/24 20:15:07;;;;;;;18.25;8.65;;;1.70;99.90;;;;;;10300365;23;20015;-82
2023/01/24 20:19:08;;;;;;;12.35;6.15;;;1.70;99.90;;;;;;10327431;23;20003;-82
2023/01/24 20:23:09;;;;;;;5.75;3.88;;;1.70;99.90;;;;;;10299465;23;20090;-82
2023/01/24 20:27:09;;;;;;;13.48;6.82;;;1.60;99.90;;;;;;10324392;23;20012;-82
2023/01/24 20:31:12;;;;;;;14.43;6.70;;;1.60;99.90;;;;;;10298886;23;20016;-82
2023/01/24 20:35:13;;;;;;;14.32;7.38;;;1.60;99.90;;;;;;10299615;23;20014;-82
2023/01/24 20:39:13;;;;;;;14.52;6.45;;;1.60;99.90;;;;;;10299600;23;20012;-82
2023/01/24 20:43:14;;;;;;;14.25;6.68;;;1.60;99.90;;;;;;10328828;23;20004;-82
2023/01/24 20:47:14;;;;;;;16.15;7.70;;;1.70;99.90;;;;;;10334731;23;20000;-82
2023/01/24 20:51:16;;;;;;;14.80;7.75;;;1.70;99.90;;;;;;10307842;23;20066;-82
2023/01/24 20:55:16;;;;;;;14.52;7.47;;;1.70;99.90;;;;;;10307441;23;20000;-82
2023/01/24 20:59:17;;;;;;;18.23;7.70;;;1.70;99.90;;;;;;10307849;23;20032;-82
2023/01/24 21:03:22;;;;;;;12.20;6.60;;;1.70;99.90;;;;;;10334190;23;20001;-82
2023/01/24 21:07:22;;;;;;;17.27;7.78;;;1.70;99.90;;;;;;10307718;23;20040;-82
2023/01/24 21:11:25;;;;;;;15.27;6.55;;;1.70;99.90;;;;;;10306321;23;20012;-82
2023/01/24 21:15:26;;;;;;;11.68;5.97;;;1.70;99.90;;;;;;10306395;23;20008;-82
2023/01/24 21:19:26;;;;;;;15.40;7.18;;;1.70;99.90;;;;;;10307140;23;20039;-81
2023/01/24 21:23:27;;;;;;;9.32;4.63;;;1.70;99.90;;;;;;10307229;23;20000;-82
2023/01/24 21:27:28;;;;;;;4.63;2.60;;;1.60;99.90;;;;;;10306076;23;20023;-81
2023/01/24 21:31:28;;;;;;;18.65;7.78;;;1.50;99.90;;;;;;10307563;23;20008;-82
2023/01/24 21:35:29;;;;;;;11.35;5.57;;;1.50;99.90;;;;;;10307525;23;20011;-81
2023/01/24 21:39:30;;;;;;;19.40;8.48;;;1.60;99.90;;;;;;10302804;22;20024;-82
2023/01/24 21:43:30;;;;;;;11.35;5.72;;;1.50;99.90;;;;;;10265009;23;20007;-80
2023/01/24 21:47:31;;;;;;;14.40;6.53;;;1.60;99.90;;;;;;10255098;23;20033;-80
2023/01/24 21:51:45;;;;;;;16.13;7.45;;;1.60;99.90;;;;;;10220981;23;20009;-81
2023/01/24 21:58:00;;;;;;;7.60;4.38;;;1.60;99.90;;;;;;10217520;23;20005;-80
2023/01/24 22:00:10;;;;;;;15.75;6.55;;;1.60;99.90;;;;;;10242874;23;20063;-81
2023/01/24 22:04:10;;;;;;;9.55;5.45;;;1.60;99.90;;;;;;10219756;23;20013;-81
2023/01/24 22:08:11;;;;;;;3.97;2.45;;;1.60;99.90;;;;;;10216579;23;20048;-81
2023/01/24 22:12:12;;;;;;;15.68;6.75;;;1.60;99.90;;;;;;10220444;23;20005;-80
2023/01/24 22:16:12;;;;;;;5.45;2.78;;;1.60;99.90;;;;;;10218199;23;20009;-80
2023/01/24 22:20:17;;;;;;;6.70;2.33;;;1.70;99.90;;;;;;10241827;23;20088;-80
2023/01/24 22:24:39;;;;;;;16.73;7.03;;;1.60;99.90;;;;;;10220351;23;20009;-79
2023/01/24 22:28:40;;;;;;;15.38;5.97;;;1.60;99.90;;;;;;10220470;23;20005;-80
2023/01/24 22:32:41;;;;;;;10.98;5.00;;;1.60;99.90;;;;;;10217901;23;20012;-80
2023/01/24 22:36:48;;;;;;;10.65;4.88;;;1.60;99.90;;;;;;10218257;23;20097;-80
2023/01/24 22:40:48;;;;;;;14.82;6.93;;;1.60;99.90;;;;;;10217326;23;20013;-80
2023/01/24 22:44:50;;;;;;;14.35;6.78;;;1.60;99.90;;;;;;10220844;23;20005;-82
2023/01/24 22:48:50;;;;;;;9.90;4.97;;;1.60;99.90;;;;;;10247433;23;20024;-79